Time;durP1;ratioP1;P1;durP2;ratioP2;P2;SDS_P1;SDS_P2;PMS_P1;PMS_P2;Temp;Humidity;BMP_temperature;BMP_pressure;BME280_temperature;BME280_humidity;BME280_pressure;Samples;Min_cycle;Max_cycle;Signal;HPM_P1;HPM_P2
2023/12/09 00:00:54;;;;;;;8.70;4.80;;;;;;;-2.12;100.00;101053.66;109476;1251;59371;-53
2023/12/09 00:03:22;;;;;;;9.30;4.90;;;;;;;-2.10;100.00;101059.34;109391;1252;73768;-59
2023/12/09 00:05:49;;;;;;;8.10;4.80;;;;;;;-2.08;100.00;101051.58;109372;1252;65733;-54
2023/12/09 00:08:17;;;;;;;8.90;5.60;;;;;;;-2.08;100.00;101048.50;109413;1252;72759;-53
2023/12/09 00:10:45;;;;;;;8.80;5.90;;;;;;;-2.08;100.00;101047.85;109450;1252;60963;-54
2023/12/09 00:13:12;;;;;;;9.60;6.30;;;;;;;-2.08;100.00;101047.15;109426;1252;60112;-53
2023/12/09 00:15:40;;;;;;;8.80;5.30;;;;;;;-2.09;100.00;101048.07;109393;1253;73467;-53
2023/12/09 00:18:08;;;;;;;8.80;4.90;;;;;;;-2.12;100.00;101055.04;109398;1253;66957;-53
2023/12/09 00:20:35;;;;;;;7.80;4.70;;;;;;;-2.14;100.00;101048.85;109409;1253;71456;-55
2023/12/09 00:23:03;;;;;;;8.80;5.10;;;;;;;-2.17;100.00;101043.55;109447;1253;59728;-54
2023/12/09 00:25:31;;;;;;;7.70;5.20;;;;;;;-2.21;100.00;101043.38;109467;1251;60130;-53
2023/12/09 00:27:58;;;;;;;7.70;4.70;;;;;;;-2.21;100.00;101041.85;109363;1253;75156;-54
2023/12/09 00:30:26;;;;;;;7.70;4.80;;;;;;;-2.21;100.00;101037.93;109409;1253;67093;-53
2023/12/09 00:32:54;;;;;;;8.40;4.90;;;;;;;-2.19;100.00;101032.08;109458;1252;72773;-53
2023/12/09 00:35:22;;;;;;;9.20;5.30;;;;;;;-2.17;100.00;101035.04;109404;1253;59653;-53
2023/12/09 00:37:50;;;;;;;8.20;5.00;;;;;;;-2.16;100.00;101034.28;109399;1253;58906;-53
2023/12/09 00:40:18;;;;;;;7.20;4.30;;;;;;;-2.13;100.00;101028.69;109374;1253;75226;-53
2023/12/09 00:42:48;;;;;;;7.00;4.20;;;;;;;-2.12;100.00;101024.56;109283;1253;65837;-53
2023/12/09 00:45:16;;;;;;;6.50;4.10;;;;;;;-2.13;100.00;101030.87;109426;1252;73130;-53
2023/12/09 00:47:44;;;;;;;7.70;4.20;;;;;;;-2.14;100.00;101026.55;109393;1253;59694;-54
2023/12/09 00:50:11;;;;;;;9.60;5.70;;;;;;;-2.15;100.00;101025.58;109389;1253;60085;-57
2023/12/09 00:52:39;;;;;;;7.30;4.40;;;;;;;-2.17;100.00;101020.22;109384;1253;74064;-53
2023/12/09 00:55:07;;;;;;;8.50;4.20;;;;;;;-2.17;100.00;101014.98;109438;1253;67133;-53
2023/12/09 00:57:34;;;;;;;7.30;4.30;;;;;;;-2.17;100.00;101022.61;109420;1253;72665;-53
2023/12/09 01:00:04;;;;;;;8.10;4.20;;;;;;;-2.16;100.00;101012.67;109441;1253;60952;-53
2023/12/09 01:02:31;;;;;;;7.20;3.90;;;;;;;-2.15;100.00;101005.11;109384;1252;60086;-54
2023/12/09 01:04:59;;;;;;;7.50;4.10;;;;;;;-2.12;100.00;101015.70;109447;1253;73409;-53
2023/12/09 01:07:27;;;;;;;9.80;4.00;;;;;;;-2.08;100.00;101011.56;109459;1253;65617;-54
2023/12/09 01:09:55;;;;;;;7.70;4.30;;;;;;;-2.07;100.00;101017.46;109399;1251;72739;-53
2023/12/09 01:12:23;;;;;;;7.90;4.20;;;;;;;-2.13;100.00;101013.34;109375;1253;59678;-54
2023/12/09 01:14:51;;;;;;;6.90;4.20;;;;;;;-2.06;100.00;101006.15;109462;1253;60667;-54
2023/12/09 01:17:19;;;;;;;7.50;3.70;;;;;;;-2.01;100.00;101004.19;109441;1253;73803;-53
2023/12/09 01:19:46;;;;;;;5.40;3.60;;;;;;;-1.96;100.00;101004.45;109428;1252;67522;-53
2023/12/09 01:22:14;;;;;;;6.70;3.80;;;;;;;-1.90;100.00;100997.10;109394;1252;73133;-53
2023/12/09 01:24:42;;;;;;;8.20;3.60;;;;;;;-1.85;100.00;101005.71;109406;1251;61423;-55
2023/12/09 01:27:10;;;;;;;7.60;4.10;;;;;;;-1.84;100.00;101002.88;109382;1253;59578;-54
2023/12/09 01:29:37;;;;;;;6.90;3.60;;;;;;;-1.83;100.00;101005.55;109402;1253;74666;-54
2023/12/09 01:32:05;;;;;;;5.10;3.00;;;;;;;-1.83;100.00;101001.52;109452;1253;67176;-56
2023/12/09 01:34:34;;;;;;;6.90;3.60;;;;;;;-1.86;100.00;100998.73;109368;1253;72733;-57
2023/12/09 01:37:02;;;;;;;5.70;3.10;;;;;;;-1.87;100.00;101003.77;109381;1256;59941;-55
2023/12/09 01:39:29;;;;;;;6.30;3.20;;;;;;;-1.88;100.00;101003.45;109481;1253;60124;-56
2023/12/09 01:41:57;;;;;;;7.50;3.90;;;;;;;-1.89;100.00;101003.70;109432;1252;73435;-55
2023/12/09 01:44:25;;;;;;;7.50;4.10;;;;;;;-1.91;100.00;101003.30;109381;1256;66153;-60
2023/12/09 01:46:52;;;;;;;7.20;3.90;;;;;;;-1.92;100.00;101006.96;109426;1253;70822;-55
2023/12/09 01:49:20;;;;;;;5.40;3.30;;;;;;;-1.91;100.00;101005.66;109410;1253;59706;-55
2023/12/09 01:51:48;;;;;;;5.60;3.10;;;;;;;-1.88;100.00;101006.85;109416;1253;60026;-56
2023/12/09 01:54:15;;;;;;;6.40;3.60;;;;;;;-1.86;100.00;101003.85;109460;1252;73816;-55
2023/12/09 01:56:43;;;;;;;5.60;3.30;;;;;;;-1.86;100.00;101002.15;109388;1253;67410;-60
2023/12/09 01:59:10;;;;;;;6.60;3.40;;;;;;;-1.85;100.00;101000.93;109426;1252;72729;-55
2023/12/09 02:01:38;;;;;;;6.00;3.70;;;;;;;-1.84;100.00;100999.00;109461;1252;60933;-56
2023/12/09 02:04:06;;;;;;;6.80;3.70;;;;;;;-1.83;100.00;101001.48;109285;1254;60269;-55
2023/12/09 02:06:33;;;;;;;5.50;3.50;;;;;;;-1.82;100.00;101009.79;109428;1252;74740;-56
2023/12/09 02:09:01;;;;;;;5.60;3.20;;;;;;;-1.83;100.00;101009.66;109370;1253;66680;-56
2023/12/09 02:11:43;;;;;;;6.70;3.40;;;;;;;-1.82;100.00;101006.90;109448;1253;71452;-55
2023/12/09 02:14:16;;;;;;;5.70;3.40;;;;;;;-1.80;100.00;101009.84;109095;1260;61030;-55
2023/12/09 02:16:49;;;;;;;6.00;3.20;;;;;;;-1.78;100.00;101011.75;109235;1254;58844;-55
2023/12/09 02:19:17;;;;;;;5.80;3.30;;;;;;;-1.72;100.00;101009.91;109461;1254;74687;-55
2023/12/09 02:22:01;;;;;;;7.30;3.70;;;;;;;-1.62;100.00;101008.36;109445;1254;67912;-56
2023/12/09 02:24:29;;;;;;;5.90;3.40;;;;;;;-1.48;100.00;101006.70;109376;1253;71292;-56
2023/12/09 02:27:16;;;;;;;5.50;3.00;;;;;;;-1.32;100.00;101011.21;109421;1252;61343;-55
2023/12/09 02:29:51;;;;;;;5.80;3.30;;;;;;;-1.23;100.00;101021.80;109290;1253;59645;-62
2023/12/09 02:32:20;;;;;;;6.00;3.40;;;;;;;-1.23;100.00;101020.90;109460;1253;73407;-56
2023/12/09 02:34:48;;;;;;;5.10;3.10;;;;;;;-1.24;100.00;101022.65;109454;1254;65747;-53
2023/12/09 02:37:15;;;;;;;6.20;3.00;;;;;;;-1.26;100.00;101026.58;109404;1254;72724;-55
2023/12/09 02:39:43;;;;;;;6.30;3.20;;;;;;;-1.27;100.00;101021.46;109229;1254;59563;-55
2023/12/09 02:42:10;;;;;;;6.10;3.00;;;;;;;-1.28;100.00;101023.27;109443;1253;60168;-56
2023/12/09 02:44:41;;;;;;;5.50;2.80;;;;;;;-1.30;100.00;101018.75;109476;1254;73541;-54
2023/12/09 02:47:15;;;;;;;4.80;2.80;;;;;;;-1.29;100.00;101013.60;109447;1252;67151;-54
2023/12/09 02:49:42;;;;;;;5.10;2.70;;;;;;;-1.28;100.00;101014.26;109409;1254;72393;-54
2023/12/09 02:52:11;;;;;;;4.70;2.70;;;;;;;-1.26;100.00;101014.81;109431;1253;59953;-54
2023/12/09 02:54:38;;;;;;;5.60;3.20;;;;;;;-1.24;100.00;101013.33;109444;1253;59134;-54
2023/12/09 02:57:06;;;;;;;5.60;3.50;;;;;;;-1.23;100.00;101016.99;109426;1255;73983;-54
2023/12/09 02:59:34;;;;;;;5.60;2.80;;;;;;;-1.22;100.00;101018.81;109388;1254;65980;-55
2023/12/09 03:02:01;;;;;;;5.20;2.90;;;;;;;-1.21;100.00;101012.98;109438;1253;72144;-55
2023/12/09 03:04:31;;;;;;;5.20;2.80;;;;;;;-1.16;100.00;101006.75;109382;1254;59647;-54
2023/12/09 03:06:58;;;;;;;5.10;2.90;;;;;;;-1.11;100.00;101002.31;109473;1253;59094;-55
2023/12/09 03:09:26;;;;;;;6.30;3.20;;;;;;;-1.11;100.00;101003.36;109433;1252;74655;-61
2023/12/09 03:11:53;;;;;;;5.00;3.00;;;;;;;-1.10;100.00;101005.20;109455;1254;65655;-54
2023/12/09 03:14:22;;;;;;;5.50;3.00;;;;;;;-1.07;100.00;101001.23;109442;1252;72681;-54
2023/12/09 03:16:50;;;;;;;4.10;2.50;;;;;;;-1.02;100.00;100999.45;109443;1253;59655;-55
2023/12/09 03:19:17;;;;;;;4.10;2.40;;;;;;;-1.00;100.00;101000.46;109432;1253;60046;-56
2023/12/09 03:21:45;;;;;;;5.90;3.00;;;;;;;-0.98;100.00;100999.72;109416;1253;74829;-56
2023/12/09 03:24:13;;;;;;;4.20;2.50;;;;;;;-0.98;100.00;100992.38;109447;1254;67055;-56
2023/12/09 03:26:40;;;;;;;5.00;2.60;;;;;;;-0.97;100.00;100990.11;109441;1254;71890;-56
2023/12/09 03:29:08;;;;;;;4.40;2.20;;;;;;;-0.95;100.00;100987.77;109412;1253;60993;-56
2023/12/09 03:31:39;;;;;;;4.10;2.40;;;;;;;-0.94;100.00;100992.66;109219;1254;60102;-66
2023/12/09 03:34:07;;;;;;;3.60;2.30;;;;;;;-0.92;100.00;100990.12;109456;1254;73428;-57
2023/12/09 03:36:34;;;;;;;4.10;2.30;;;;;;;-0.85;100.00;100991.05;109495;1253;65717;-58
2023/12/09 03:39:03;;;;;;;4.30;2.30;;;;;;;-0.81;100.00;100993.91;109420;1254;72738;-58
2023/12/09 03:41:30;;;;;;;4.00;2.50;;;;;;;-0.79;100.00;100989.84;109419;1252;60852;-68
2023/12/09 03:43:58;;;;;;;5.40;2.80;;;;;;;-0.78;100.00;100987.59;109364;1254;60343;-59
2023/12/09 03:46:26;;;;;;;4.60;2.60;;;;;;;-0.79;100.00;100993.79;109446;1254;74760;-62
2023/12/09 03:48:53;;;;;;;5.20;2.50;;;;;;;-0.79;100.00;100991.92;109453;1252;66078;-59
2023/12/09 03:51:21;;;;;;;5.20;2.80;;;;;;;-0.77;100.00;100986.69;109397;1254;72712;-71
2023/12/09 03:53:49;;;;;;;4.50;2.60;;;;;;;-0.73;100.00;100983.20;109447;1252;60935;-62
2023/12/09 03:56:17;;;;;;;4.50;2.90;;;;;;;-0.72;100.00;100972.73;109454;1253;60010;-62
2023/12/09 03:58:44;;;;;;;4.10;2.50;;;;;;;-0.72;100.00;100976.50;109426;1254;73412;-65
2023/12/09 04:01:12;;;;;;;4.40;2.40;;;;;;;-0.72;100.00;100971.20;109450;1253;65777;-65
2023/12/09 04:03:40;;;;;;;5.90;3.10;;;;;;;-0.71;100.00;100971.31;109393;1254;72726;-71
2023/12/09 04:06:08;;;;;;;4.60;2.70;;;;;;;-0.70;100.00;100978.23;109404;1253;61027;-65
2023/12/09 04:08:36;;;;;;;5.30;3.30;;;;;;;-0.67;100.00;100977.88;109442;1253;60085;-65
2023/12/09 04:11:04;;;;;;;4.50;2.60;;;;;;;-0.63;100.00;100985.70;109441;1252;72896;-68
2023/12/09 04:13:32;;;;;;;4.40;2.70;;;;;;;-0.61;100.00;100985.23;109451;1254;66928;-66
2023/12/09 04:16:00;;;;;;;4.80;2.60;;;;;;;-0.61;100.00;100980.05;109398;1254;71819;-66
2023/12/09 04:18:28;;;;;;;5.40;2.60;;;;;;;-0.62;100.00;100978.94;109425;1253;60978;-66
2023/12/09 04:20:56;;;;;;;5.00;2.60;;;;;;;-0.61;100.00;100979.73;109452;1254;60088;-67
2023/12/09 04:23:24;;;;;;;4.20;2.60;;;;;;;-0.59;100.00;100986.75;109481;1254;74752;-68
2023/12/09 04:25:52;;;;;;;5.00;2.70;;;;;;;-0.58;100.00;100986.02;109397;1253;66847;-69
2023/12/09 04:28:20;;;;;;;5.10;2.50;;;;;;;-0.56;100.00;100980.79;109430;1252;71463;-68
2023/12/09 04:30:47;;;;;;;6.00;2.80;;;;;;;-0.52;100.00;100980.17;109433;1253;59290;-69
2023/12/09 04:33:15;;;;;;;5.30;3.00;;;;;;;-0.49;100.00;100976.79;109290;1254;59073;-69
2023/12/09 04:35:43;;;;;;;4.70;2.60;;;;;;;-0.48;100.00;100982.90;109254;1254;74696;-68
2023/12/09 04:38:10;;;;;;;3.90;2.30;;;;;;;-0.46;100.00;100977.98;109231;1254;67509;-71
2023/12/09 04:40:38;;;;;;;4.80;2.30;;;;;;;-0.47;100.00;100979.88;109248;1253;71417;-71
2023/12/09 04:43:06;;;;;;;4.90;2.40;;;;;;;-0.50;100.00;100975.15;109234;1253;60965;-69
2023/12/09 04:45:33;;;;;;;4.20;2.60;;;;;;;-0.52;100.00;100981.09;109247;1253;59260;-71
2023/12/09 04:48:02;;;;;;;4.10;2.30;;;;;;;-0.54;100.00;100972.65;109223;1253;73466;-72
2023/12/09 04:50:30;;;;;;;4.40;2.40;;;;;;;-0.54;100.00;100970.23;109289;1254;65795;-72
2023/12/09 04:52:58;;;;;;;3.70;1.80;;;;;;;-0.52;100.00;100982.10;109271;1253;72778;-73
2023/12/09 04:55:26;;;;;;;3.00;1.80;;;;;;;-0.51;100.00;100977.41;109249;1253;59821;-72
2023/12/09 04:57:53;;;;;;;4.10;2.30;;;;;;;-0.52;100.00;100977.98;109297;1253;60118;-67
2023/12/09 05:00:21;;;;;;;3.50;1.90;;;;;;;-0.51;100.00;100974.52;109266;1254;74675;-70
2023/12/09 05:02:49;;;;;;;4.10;2.40;;;;;;;-0.51;100.00;100974.46;109327;1254;66935;-71
2023/12/09 05:05:17;;;;;;;4.10;2.10;;;;;;;-0.50;100.00;100977.86;109307;1254;71737;-70
2023/12/09 05:07:44;;;;;;;4.70;2.30;;;;;;;-0.56;100.00;100979.95;109252;1253;59699;-71
2023/12/09 05:10:12;;;;;;;4.10;2.50;;;;;;;-0.51;100.00;100974.50;109198;1253;58987;-70
2023/12/09 05:12:40;;;;;;;4.20;2.20;;;;;;;-0.49;100.00;100976.79;109297;1254;75770;-71
2023/12/09 05:15:08;;;;;;;4.10;2.20;;;;;;;-0.46;100.00;100973.20;109296;1253;65667;-71
2023/12/09 05:17:36;;;;;;;4.20;2.20;;;;;;;-0.44;100.00;100972.06;109303;1253;71864;-71
2023/12/09 05:20:05;;;;;;;3.40;1.80;;;;;;;-0.43;100.00;100969.10;109287;1253;59677;-71
2023/12/09 05:22:32;;;;;;;4.40;2.80;;;;;;;-0.42;100.00;100972.08;109101;1257;60004;-75
2023/12/09 05:25:00;;;;;;;3.90;2.20;;;;;;;-0.40;100.00;100971.13;109318;1254;74721;-72
2023/12/09 05:27:28;;;;;;;4.20;2.30;;;;;;;-0.40;100.00;100974.00;109287;1253;65741;-73
2023/12/09 05:29:55;;;;;;;3.50;2.00;;;;;;;-0.40;100.00;100974.17;109242;1254;72742;-74
2023/12/09 05:32:23;;;;;;;3.30;1.80;;;;;;;-0.40;100.00;100967.90;109358;1253;61022;-69
2023/12/09 05:34:51;;;;;;;4.00;2.20;;;;;;;-0.41;100.00;100974.42;109373;1254;59218;-76
2023/12/09 05:37:18;;;;;;;3.80;2.00;;;;;;;-0.42;100.00;100968.66;109459;1253;74064;-77
2023/12/09 05:39:46;;;;;;;3.20;1.70;;;;;;;-0.43;100.00;100974.85;109432;1253;67152;-79
2023/12/09 05:42:14;;;;;;;3.90;2.00;;;;;;;-0.45;100.00;100978.08;109435;1254;72770;-69
2023/12/09 05:44:41;;;;;;;4.10;2.10;;;;;;;-0.47;100.00;100974.61;109452;1253;59468;-78
2023/12/09 05:47:09;;;;;;;4.20;2.00;;;;;;;-0.47;100.00;100972.88;109412;1253;59146;-80
2023/12/09 05:49:36;;;;;;;4.00;1.70;;;;;;;-0.45;100.00;100971.09;109429;1253;73526;-79
2023/12/09 05:52:05;;;;;;;4.20;2.00;;;;;;;-0.44;100.00;100960.27;109476;1253;66194;-72
2023/12/09 05:54:34;;;;;;;4.20;2.20;;;;;;;-0.44;100.00;100958.89;109421;1253;73178;-79
2023/12/09 05:57:02;;;;;;;3.50;2.10;;;;;;;-0.43;100.00;100954.20;109407;1252;59846;-78
2023/12/09 05:59:29;;;;;;;3.50;2.00;;;;;;;-0.43;100.00;100952.70;109414;1253;59997;-78
2023/12/09 06:01:57;;;;;;;3.80;2.40;;;;;;;-0.43;100.00;100954.90;109411;1252;74665;-79
2023/12/09 06:04:24;;;;;;;3.20;1.70;;;;;;;-0.43;100.00;100954.73;109410;1252;67459;-73
2023/12/09 06:06:52;;;;;;;4.30;2.10;;;;;;;-0.44;100.00;100958.56;109389;1253;71946;-78
2023/12/09 06:09:20;;;;;;;4.90;2.60;;;;;;;-0.47;100.00;100956.34;109426;1252;59662;-74
2023/12/09 06:11:48;;;;;;;5.60;2.40;;;;;;;-0.49;100.00;100949.14;109441;1253;60124;-73
2023/12/09 06:14:16;;;;;;;3.90;2.10;;;;;;;-0.51;100.00;100952.98;109378;1253;74762;-68
2023/12/09 06:16:43;;;;;;;4.60;2.70;;;;;;;-0.51;100.00;100950.91;109310;1253;65675;-72
2023/12/09 06:19:11;;;;;;;3.60;2.10;;;;;;;-0.52;100.00;100955.62;109419;1253;72704;-71
2023/12/09 06:21:39;;;;;;;4.00;2.00;;;;;;;-0.54;100.00;100950.64;109476;1253;60927;-70
2023/12/09 06:24:07;;;;;;;4.20;2.30;;;;;;;-0.57;100.00;100950.97;109348;1253;59031;-69
2023/12/09 06:26:41;;;;;;;5.30;2.60;;;;;;;-0.57;100.00;100945.69;109408;1253;73367;-68
2023/12/09 06:29:09;;;;;;;4.90;2.70;;;;;;;-0.56;100.00;100955.35;109421;1252;66064;-69
2023/12/09 06:31:37;;;;;;;5.50;2.90;;;;;;;-0.56;100.00;100955.52;109258;1253;73395;-69
2023/12/09 06:34:05;;;;;;;3.80;2.20;;;;;;;-0.58;100.00;100952.22;109445;1253;60933;-68
2023/12/09 06:36:33;;;;;;;4.60;2.20;;;;;;;-0.62;100.00;100956.58;109398;1253;60121;-68
2023/12/09 06:39:01;;;;;;;5.70;3.10;;;;;;;-0.66;100.00;100955.14;109399;1253;74756;-67
2023/12/09 06:41:31;;;;;;;5.30;3.20;;;;;;;-0.69;100.00;100957.36;109426;1253;65647;-66
2023/12/09 06:43:59;;;;;;;5.80;2.60;;;;;;;-0.71;100.00;100964.32;109409;1253;72748;-66
2023/12/09 06:46:26;;;;;;;4.80;2.70;;;;;;;-0.71;100.00;100966.52;109406;1253;59655;-69
2023/12/09 06:48:54;;;;;;;4.90;2.50;;;;;;;-0.70;100.00;100978.23;109431;1253;60084;-65
2023/12/09 06:51:22;;;;;;;5.50;3.10;;;;;;;-0.67;100.00;100982.34;109472;1253;72651;-64
2023/12/09 06:53:49;;;;;;;6.50;3.50;;;;;;;-0.64;100.00;100987.64;109325;1252;64928;-63
2023/12/09 06:56:18;;;;;;;6.40;3.90;;;;;;;-0.63;100.00;100990.44;109392;1252;71493;-63
2023/12/09 06:58:46;;;;;;;4.40;2.70;;;;;;;-0.64;100.00;100985.05;109381;1253;58961;-64
2023/12/09 07:01:23;;;;;;;4.30;2.70;;;;;;;-0.65;100.00;100977.58;109396;1252;60077;-65
2023/12/09 07:03:51;;;;;;;5.10;2.80;;;;;;;-0.68;100.00;100982.39;109396;1252;74671;-64
2023/12/09 07:06:26;;;;;;;4.00;2.20;;;;;;;-0.73;100.00;100979.77;109420;1253;65941;-64
2023/12/09 07:08:54;;;;;;;5.40;2.70;;;;;;;-0.76;100.00;100988.16;109434;1252;73116;-63
2023/12/09 07:11:22;;;;;;;4.80;2.90;;;;;;;-0.80;100.00;100994.34;109443;1253;61332;-63
2023/12/09 07:13:50;;;;;;;6.50;2.70;;;;;;;-0.82;100.00;101000.42;109452;1252;59311;-62
2023/12/09 07:16:18;;;;;;;4.80;2.90;;;;;;;-0.81;100.00;101004.52;109416;1253;74653;-70
2023/12/09 07:18:46;;;;;;;5.10;2.70;;;;;;;-0.82;100.00;101014.25;109457;1252;67000;-62
2023/12/09 07:21:15;;;;;;;5.60;3.20;;;;;;;-0.81;100.00;101017.77;109437;1252;72932;-62
2023/12/09 07:23:43;;;;;;;5.10;3.20;;;;;;;-0.78;100.00;101022.52;109360;1252;61002;-63
2023/12/09 07:26:12;;;;;;;4.90;3.00;;;;;;;-0.76;100.00;101022.62;109388;1253;60272;-69
2023/12/09 07:28:40;;;;;;;4.90;2.90;;;;;;;-0.76;100.00;101015.77;109462;1252;75319;-60
2023/12/09 07:31:07;;;;;;;5.40;3.10;;;;;;;-0.75;100.00;101013.83;109425;1253;66927;-59
2023/12/09 07:33:35;;;;;;;5.80;3.20;;;;;;;-0.74;100.00;101010.20;109433;1252;73163;-61
2023/12/09 07:36:03;;;;;;;5.60;3.80;;;;;;;-0.74;100.00;101008.65;109424;1252;60938;-59
2023/12/09 07:38:31;;;;;;;5.10;3.10;;;;;;;-0.74;100.00;101007.83;109370;1252;60170;-61
2023/12/09 07:40:59;;;;;;;6.50;3.60;;;;;;;-0.76;100.00;101009.95;109441;1253;74738;-60
2023/12/09 07:43:26;;;;;;;6.10;3.30;;;;;;;-0.76;100.00;101004.03;109435;1253;65789;-61
2023/12/09 07:45:54;;;;;;;6.90;3.90;;;;;;;-0.82;100.00;100997.40;109357;1253;71749;-60
2023/12/09 07:48:21;;;;;;;5.60;3.40;;;;;;;-0.85;100.00;100995.50;109393;1253;60942;-63
2023/12/09 07:50:49;;;;;;;5.90;3.50;;;;;;;-0.86;100.00;100988.03;109422;1253;59014;-61
2023/12/09 07:53:17;;;;;;;5.70;3.30;;;;;;;-0.85;100.00;100982.00;109431;1253;74769;-63
2023/12/09 07:55:45;;;;;;;5.70;3.60;;;;;;;-0.87;100.00;100977.19;109473;1253;67485;-59
2023/12/09 07:58:12;;;;;;;6.30;4.00;;;;;;;-0.89;100.00;100972.87;109370;1253;72736;-67
2023/12/09 08:00:40;;;;;;;8.10;4.40;;;;;;;-0.91;100.00;100974.20;109357;1253;60493;-60
2023/12/09 08:03:08;;;;;;;7.10;4.20;;;;;;;-0.95;100.00;100970.54;109432;1253;59563;-60
2023/12/09 08:05:36;;;;;;;8.30;4.50;;;;;;;-0.98;100.00;100964.73;109375;1253;73458;-62
2023/12/09 08:08:04;;;;;;;7.10;4.20;;;;;;;-0.99;100.00;100957.81;109400;1252;65279;-61
2023/12/09 08:10:31;;;;;;;8.40;4.00;;;;;;;-0.99;100.00;100954.20;109353;1252;72740;-60
2023/12/09 08:12:59;;;;;;;5.80;3.80;;;;;;;-0.99;100.00;100958.96;109409;1253;60927;-60
2023/12/09 08:15:26;;;;;;;6.10;4.10;;;;;;;-1.01;100.00;100959.08;109425;1253;60011;-60
2023/12/09 08:17:54;;;;;;;7.90;4.60;;;;;;;-1.03;100.00;100957.48;109450;1253;73412;-60
2023/12/09 08:20:22;;;;;;;8.10;5.20;;;;;;;-1.03;100.00;100949.33;109414;1253;65847;-70
2023/12/09 08:22:49;;;;;;;6.80;4.40;;;;;;;-1.03;100.00;100948.66;109415;1253;72712;-61
2023/12/09 08:25:17;;;;;;;7.40;4.60;;;;;;;-1.07;100.00;100946.98;109447;1252;59662;-61
2023/12/09 08:27:45;;;;;;;6.80;4.50;;;;;;;-1.09;100.00;100941.48;109415;1252;59074;-59
2023/12/09 08:30:13;;;;;;;8.60;5.30;;;;;;;-1.10;100.00;100937.27;109432;1253;73398;-61
2023/12/09 08:32:41;;;;;;;9.10;5.80;;;;;;;-1.10;100.00;100935.06;109354;1253;66332;-60
2023/12/09 08:35:09;;;;;;;8.70;5.60;;;;;;;-1.10;100.00;100936.09;109416;1252;71421;-59
2023/12/09 08:37:38;;;;;;;9.00;5.10;;;;;;;-1.12;100.00;100927.55;109409;1252;59782;-60
2023/12/09 08:40:10;;;;;;;8.60;5.20;;;;;;;-1.15;100.00;100928.59;109445;1253;60143;-59
2023/12/09 08:42:42;;;;;;;11.60;6.20;;;;;;;-1.20;100.00;100923.90;109401;1253;74706;-57
2023/12/09 08:45:11;;;;;;;9.70;6.20;;;;;;;-1.20;100.00;100923.39;109417;1253;65718;-58
2023/12/09 08:47:39;;;;;;;9.00;5.80;;;;;;;-1.17;100.00;100924.27;109403;1252;73074;-57
2023/12/09 08:50:12;;;;;;;9.00;5.40;;;;;;;-1.16;100.00;100918.92;109396;1252;60836;-60
2023/12/09 08:52:43;;;;;;;9.20;6.30;;;;;;;-1.14;100.00;100921.88;109350;1252;60098;-57
2023/12/09 08:55:11;;;;;;;9.70;5.20;;;;;;;-1.13;100.00;100924.71;109454;1252;76864;-57
2023/12/09 08:57:39;;;;;;;7.70;4.40;;;;;;;-1.10;100.00;100932.52;109455;1253;66922;-60
2023/12/09 09:00:08;;;;;;;8.40;5.10;;;;;;;-1.08;100.00;100931.52;109410;1252;73009;-69
2023/12/09 09:02:36;;;;;;;7.70;4.70;;;;;;;-1.06;100.00;100929.19;109401;1252;59642;-62
2023/12/09 09:05:04;;;;;;;8.60;4.80;;;;;;;-1.06;100.00;100928.01;109439;1253;60274;-62
2023/12/09 09:07:36;;;;;;;9.70;5.50;;;;;;;-1.06;100.00;100922.41;109452;1253;74772;-59
2023/12/09 09:10:04;;;;;;;11.50;6.40;;;;;;;-1.06;100.00;100916.92;109490;1252;65963;-59
2023/12/09 09:12:32;;;;;;;10.50;5.90;;;;;;;-1.06;100.00;100917.95;109431;1252;71016;-60
2023/12/09 09:14:59;;;;;;;9.20;6.00;;;;;;;-1.09;100.00;100910.77;109385;1253;61001;-57
2023/12/09 09:17:34;;;;;;;9.40;5.90;;;;;;;-1.11;100.00;100904.80;109490;1253;59038;-57
2023/12/09 09:20:04;;;;;;;8.70;5.60;;;;;;;-1.14;100.00;100904.95;109418;1253;73659;-57
2023/12/09 09:22:33;;;;;;;9.10;5.90;;;;;;;-1.14;100.00;100906.70;109432;1252;67465;-59
2023/12/09 09:25:02;;;;;;;9.00;4.90;;;;;;;-1.12;100.00;100904.48;109384;1253;72767;-59
2023/12/09 09:27:29;;;;;;;9.90;5.80;;;;;;;-1.09;100.00;100902.78;109383;1252;60933;-59
2023/12/09 09:29:57;;;;;;;8.70;4.80;;;;;;;-1.07;100.00;100901.11;109446;1252;59416;-60
2023/12/09 09:32:25;;;;;;;10.00;6.70;;;;;;;-1.07;100.00;100898.23;109357;1253;74905;-60
2023/12/09 09:34:53;;;;;;;10.20;6.20;;;;;;;-1.07;100.00;100899.09;109453;1252;67466;-59
2023/12/09 09:37:21;;;;;;;9.30;6.00;;;;;;;-1.05;100.00;100896.55;109410;1253;72753;-60
2023/12/09 09:39:48;;;;;;;9.40;5.80;;;;;;;-1.03;100.00;100889.77;109430;1252;60883;-59
2023/12/09 09:42:29;;;;;;;9.80;5.50;;;;;;;-1.01;100.00;100886.81;109379;1252;58894;-66
2023/12/09 09:45:05;;;;;;;8.60;4.60;;;;;;;-0.98;100.00;100889.52;109257;1252;73928;-60
2023/12/09 09:47:36;;;;;;;9.00;5.30;;;;;;;-0.95;100.00;100897.31;109433;1252;65918;-60
2023/12/09 09:50:05;;;;;;;;;;;;;;;-0.94;100.00;100890.80;109351;1252;71386;-61
2023/12/09 09:52:35;;;;;;;7.70;4.80;;;;;;;-0.92;100.00;100895.48;109383;1252;58988;-59
2023/12/09 09:55:06;;;;;;;6.90;4.30;;;;;;;-0.91;100.00;100896.25;109395;1253;59148;-60
2023/12/09 09:57:34;;;;;;;6.40;4.50;;;;;;;-0.93;100.00;100891.59;109420;1253;73416;-60
2023/12/09 10:00:11;;;;;;;7.40;4.70;;;;;;;-0.94;100.00;100887.91;109404;1253;66946;-60
2023/12/09 10:02:44;;;;;;;8.50;5.00;;;;;;;-0.95;100.00;100887.42;109397;1253;72747;-60
2023/12/09 10:05:12;;;;;;;8.60;5.20;;;;;;;-0.95;100.00;100884.71;109411;1253;59656;-60
2023/12/09 10:07:40;;;;;;;8.50;5.30;;;;;;;-0.93;100.00;100886.11;109420;1252;60097;-58
2023/12/09 10:10:09;;;;;;;8.10;5.50;;;;;;;-0.90;100.00;100884.39;109340;1252;74717;-60
2023/12/09 10:12:36;;;;;;;8.60;4.90;;;;;;;-0.87;100.00;100886.40;109403;1252;65789;-60
2023/12/09 10:15:04;;;;;;;8.90;5.10;;;;;;;-0.83;100.00;100876.65;109403;1252;72854;-61
2023/12/09 10:17:32;;;;;;;8.20;5.00;;;;;;;-0.81;100.00;100876.85;109442;1253;59143;-58
2023/12/09 10:20:00;;;;;;;10.20;5.80;;;;;;;-0.82;100.00;100871.61;109365;1252;60501;-70
2023/12/09 10:22:28;;;;;;;9.40;5.90;;;;;;;-0.84;100.00;100874.29;109387;1252;74746;-58
2023/12/09 10:24:56;;;;;;;8.50;5.10;;;;;;;-0.85;100.00;100875.37;109405;1252;65660;-58
2023/12/09 10:27:24;;;;;;;7.60;4.60;;;;;;;-0.89;100.00;100872.04;109443;1253;72492;-58
2023/12/09 10:29:52;;;;;;;8.80;5.30;;;;;;;-0.94;100.00;100871.49;109275;1253;62956;-61
2023/12/09 10:32:20;;;;;;;8.70;5.00;;;;;;;-0.96;100.00;100869.27;109175;1253;60013;-58
2023/12/09 10:34:48;;;;;;;10.70;5.50;;;;;;;-0.97;100.00;100871.89;109204;1253;74750;-58
2023/12/09 10:37:17;;;;;;;10.30;6.40;;;;;;;-0.99;100.00;100869.23;109242;1253;66933;-58
2023/12/09 10:39:46;;;;;;;7.00;4.50;;;;;;;-0.99;100.00;100870.94;109104;1253;71428;-61
2023/12/09 10:42:14;;;;;;;7.00;4.20;;;;;;;-0.99;100.00;100869.40;109049;1253;59508;-60
2023/12/09 10:44:42;;;;;;;8.10;5.10;;;;;;;-1.01;100.00;100862.02;109216;1253;60084;-59
2023/12/09 10:47:09;;;;;;;7.50;4.50;;;;;;;-1.05;100.00;100860.41;109227;1253;73455;-57
2023/12/09 10:49:37;;;;;;;9.50;5.00;;;;;;;-1.09;100.00;100858.44;109332;1253;65469;-58
2023/12/09 10:52:05;;;;;;;7.40;4.30;;;;;;;-1.08;100.00;100856.53;109168;1253;70863;-64
2023/12/09 10:54:33;;;;;;;8.60;4.10;;;;;;;-1.07;100.00;100855.43;109107;1253;60989;-57
2023/12/09 10:57:00;;;;;;;6.70;3.90;;;;;;;-1.09;100.00;100850.55;109217;1253;58913;-58
2023/12/09 10:59:31;;;;;;;7.80;4.40;;;;;;;-1.15;100.00;100847.55;109087;1253;74717;-58
2023/12/09 11:01:59;;;;;;;8.30;4.60;;;;;;;-1.16;100.00;100847.98;109165;1253;66958;-58
2023/12/09 11:04:26;;;;;;;7.30;4.50;;;;;;;-1.19;100.00;100849.33;109244;1253;72182;-58
2023/12/09 11:06:55;;;;;;;7.80;4.80;;;;;;;-1.22;100.00;100847.61;109367;1252;60975;-57
2023/12/09 11:09:23;;;;;;;8.80;5.30;;;;;;;-1.22;100.00;100845.41;109119;1253;60009;-58
2023/12/09 11:11:51;;;;;;;7.40;5.20;;;;;;;-1.21;100.00;100838.88;109123;1253;74805;-65
2023/12/09 11:14:18;;;;;;;9.50;5.00;;;;;;;-1.20;100.00;100840.02;109257;1253;68203;-59